sensor_id;sensor_type;location;lat;lon;timestamp;pressure;altitude;pressure_sealevel;temperature;humidity
61898;BME280;47850;50.274;18.908;2023-01-15T00:01:35;97522.61;;;4.25;70.20
61898;BME280;47850;50.274;18.908;2023-01-15T00:04:02;97519.88;;;4.27;70.01
61898;BME280;47850;50.274;18.908;2023-01-15T00:06:29;97517.21;;;4.29;69.78
61898;BME280;47850;50.274;18.908;2023-01-15T00:08:57;97508.77;;;4.31;69.91
61898;BME280;47850;50.274;18.908;2023-01-15T00:11:23;97499.70;;;4.33;69.44
61898;BME280;47850;50.274;18.908;2023-01-15T00:13:49;97498.38;;;4.37;69.11
61898;BME280;47850;50.274;18.908;2023-01-15T00:16:18;97500.46;;;4.41;68.87
61898;BME280;47850;50.274;18.908;2023-01-15T00:18:55;97502.20;;;4.43;68.99
61898;BME280;47850;50.274;18.908;2023-01-15T00:21:21;97499.05;;;4.45;69.01
61898;BME280;47850;50.274;18.908;2023-01-15T00:23:48;97499.62;;;4.46;68.74
61898;BME280;47850;50.274;18.908;2023-01-15T00:26:33;97498.22;;;4.48;68.45
61898;BME280;47850;50.274;18.908;2023-01-15T00:29:18;97496.88;;;4.52;68.36
61898;BME280;47850;50.274;18.908;2023-01-15T00:31:52;97499.58;;;4.54;68.31
61898;BME280;47850;50.274;18.908;2023-01-15T00:34:19;97488.25;;;4.57;67.71
61898;BME280;47850;50.274;18.908;2023-01-15T00:36:44;97487.55;;;4.64;67.57
61898;BME280;47850;50.274;18.908;2023-01-15T00:39:10;97490.82;;;4.68;67.71
61898;BME280;47850;50.274;18.908;2023-01-15T00:41:35;97489.59;;;4.70;67.17
61898;BME280;47850;50.274;18.908;2023-01-15T00:44:01;97490.70;;;4.75;66.96
61898;BME280;47850;50.274;18.908;2023-01-15T00:46:26;97490.93;;;4.79;66.68
61898;BME280;47850;50.274;18.908;2023-01-15T00:48:52;97488.27;;;4.84;66.63
61898;BME280;47850;50.274;18.908;2023-01-15T00:51:20;97480.65;;;4.86;66.84
61898;BME280;47850;50.274;18.908;2023-01-15T00:53:46;97476.52;;;4.91;66.25
61898;BME280;47850;50.274;18.908;2023-01-15T00:56:11;97469.91;;;4.97;66.09
61898;BME280;47850;50.274;18.908;2023-01-15T00:58:37;97460.01;;;5.01;66.05
61898;BME280;47850;50.274;18.908;2023-01-15T01:01:02;97455.55;;;5.02;66.22
61898;BME280;47850;50.274;18.908;2023-01-15T01:03:28;97455.64;;;5.02;66.26
61898;BME280;47850;50.274;18.908;2023-01-15T01:06:01;97454.34;;;5.03;65.92
61898;BME280;47850;50.274;18.908;2023-01-15T01:08:27;97447.39;;;5.05;66.05
61898;BME280;47850;50.274;18.908;2023-01-15T01:11:04;97446.89;;;5.06;65.88
61898;BME280;47850;50.274;18.908;2023-01-15T01:13:32;97442.02;;;5.08;65.72
61898;BME280;47850;50.274;18.908;2023-01-15T01:15:57;97431.80;;;5.09;65.88
61898;BME280;47850;50.274;18.908;2023-01-15T01:18:23;97423.44;;;5.07;66.10
61898;BME280;47850;50.274;18.908;2023-01-15T01:20:49;97428.81;;;5.07;66.01
61898;BME280;47850;50.274;18.908;2023-01-15T01:23:14;97425.77;;;5.06;65.93
61898;BME280;47850;50.274;18.908;2023-01-15T01:25:40;97418.19;;;5.06;65.91
61898;BME280;47850;50.274;18.908;2023-01-15T01:28:05;97423.48;;;5.05;66.02
61898;BME280;47850;50.274;18.908;2023-01-15T01:30:31;97417.05;;;5.06;65.94
61898;BME280;47850;50.274;18.908;2023-01-15T01:32:56;97412.40;;;5.06;66.08
61898;BME280;47850;50.274;18.908;2023-01-15T01:35:22;97413.96;;;5.03;66.35
61898;BME280;47850;50.274;18.908;2023-01-15T01:37:50;97409.80;;;5.01;66.54
61898;BME280;47850;50.274;18.908;2023-01-15T01:40:17;97403.33;;;4.98;66.87
61898;BME280;47850;50.274;18.908;2023-01-15T01:42:43;97406.73;;;4.91;67.12
61898;BME280;47850;50.274;18.908;2023-01-15T01:45:25;97401.79;;;4.88;67.19
61898;BME280;47850;50.274;18.908;2023-01-15T01:48:02;97393.75;;;4.85;67.44
61898;BME280;47850;50.274;18.908;2023-01-15T01:50:31;97390.75;;;4.83;67.50
61898;BME280;47850;50.274;18.908;2023-01-15T01:53:19;97384.42;;;4.81;67.70
61898;BME280;47850;50.274;18.908;2023-01-15T01:55:46;97384.12;;;4.77;68.13
61898;BME280;47850;50.274;18.908;2023-01-15T01:58:13;97380.35;;;4.73;68.15
61898;BME280;47850;50.274;18.908;2023-01-15T02:00:42;97373.89;;;4.72;68.39
61898;BME280;47850;50.274;18.908;2023-01-15T02:03:09;97361.98;;;4.69;68.46
61898;BME280;47850;50.274;18.908;2023-01-15T02:05:43;97354.19;;;4.66;68.65
61898;BME280;47850;50.274;18.908;2023-01-15T02:08:10;97360.50;;;4.63;68.69
61898;BME280;47850;50.274;18.908;2023-01-15T02:10:36;97364.46;;;4.62;68.64
61898;BME280;47850;50.274;18.908;2023-01-15T02:13:22;97363.39;;;4.62;68.74
61898;BME280;47850;50.274;18.908;2023-01-15T02:16:02;97359.58;;;4.62;68.64
61898;BME280;47850;50.274;18.908;2023-01-15T02:18:39;97348.96;;;4.60;68.87
61898;BME280;47850;50.274;18.908;2023-01-15T02:28:49;97349.08;;;4.51;69.10
61898;BME280;47850;50.274;18.908;2023-01-15T02:31:26;97332.66;;;4.54;69.04
61898;BME280;47850;50.274;18.908;2023-01-15T02:33:59;97330.02;;;4.54;69.00
61898;BME280;47850;50.274;18.908;2023-01-15T02:36:30;97321.66;;;4.56;69.24
61898;BME280;47850;50.274;18.908;2023-01-15T02:38:58;97316.58;;;4.53;69.19
61898;BME280;47850;50.274;18.908;2023-01-15T02:41:32;97325.70;;;4.55;68.96
61898;BME280;47850;50.274;18.908;2023-01-15T02:44:00;97321.81;;;4.57;69.02
61898;BME280;47850;50.274;18.908;2023-01-15T02:46:30;97327.84;;;4.58;68.99
61898;BME280;47850;50.274;18.908;2023-01-15T02:48:58;97334.83;;;4.62;68.76
61898;BME280;47850;50.274;18.908;2023-01-15T02:51:33;97332.98;;;4.65;68.57
61898;BME280;47850;50.274;18.908;2023-01-15T02:54:04;97330.82;;;4.68;68.69
61898;BME280;47850;50.274;18.908;2023-01-15T02:56:32;97328.52;;;4.70;68.67
61898;BME280;47850;50.274;18.908;2023-01-15T02:59:05;97323.79;;;4.72;68.43
61898;BME280;47850;50.274;18.908;2023-01-15T03:01:54;97320.09;;;4.73;68.58
61898;BME280;47850;50.274;18.908;2023-01-15T03:04:41;97317.77;;;4.75;68.25
61898;BME280;47850;50.274;18.908;2023-01-15T03:09:41;97309.45;;;4.79;68.12
61898;BME280;47850;50.274;18.908;2023-01-15T03:17:34;97318.27;;;4.85;67.61
61898;BME280;47850;50.274;18.908;2023-01-15T03:20:07;97317.92;;;4.88;67.44
61898;BME280;47850;50.274;18.908;2023-01-15T03:22:38;97313.51;;;4.93;67.54
61898;BME280;47850;50.274;18.908;2023-01-15T03:27:39;97298.07;;;5.00;67.13
61898;BME280;47850;50.274;18.908;2023-01-15T03:30:16;97290.82;;;5.02;66.93
61898;BME280;47850;50.274;18.908;2023-01-15T03:32:42;97281.27;;;5.04;67.12
61898;BME280;47850;50.274;18.908;2023-01-15T03:38:13;97271.29;;;5.06;67.39
61898;BME280;47850;50.274;18.908;2023-01-15T03:40:49;97273.85;;;5.07;66.91
61898;BME280;47850;50.274;18.908;2023-01-15T03:43:19;97268.16;;;5.10;67.09
61898;BME280;47850;50.274;18.908;2023-01-15T03:46:10;97274.10;;;5.13;67.22
61898;BME280;47850;50.274;18.908;2023-01-15T03:49:02;97271.08;;;5.17;67.06
61898;BME280;47850;50.274;18.908;2023-01-15T03:54:24;97264.95;;;5.27;67.50
61898;BME280;47850;50.274;18.908;2023-01-15T04:00:00;97258.00;;;5.38;68.34
61898;BME280;47850;50.274;18.908;2023-01-15T04:02:29;97263.57;;;5.42;68.45
61898;BME280;47850;50.274;18.908;2023-01-15T04:04:55;97261.23;;;5.48;68.84
61898;BME280;47850;50.274;18.908;2023-01-15T04:07:23;97262.06;;;5.55;68.95
61898;BME280;47850;50.274;18.908;2023-01-15T04:09:50;97252.58;;;5.63;69.01
61898;BME280;47850;50.274;18.908;2023-01-15T04:12:15;97251.39;;;5.65;69.17
61898;BME280;47850;50.274;18.908;2023-01-15T04:14:41;97250.23;;;5.66;69.37
61898;BME280;47850;50.274;18.908;2023-01-15T04:17:07;97248.42;;;5.67;69.75
61898;BME280;47850;50.274;18.908;2023-01-15T04:19:33;97247.05;;;5.68;70.04
61898;BME280;47850;50.274;18.908;2023-01-15T04:21:58;97241.95;;;5.66;70.55
61898;BME280;47850;50.274;18.908;2023-01-15T04:24:24;97249.47;;;5.64;70.98
61898;BME280;47850;50.274;18.908;2023-01-15T04:26:50;97247.80;;;5.61;71.15
61898;BME280;47850;50.274;18.908;2023-01-15T04:29:15;97242.66;;;5.58;71.44
61898;BME280;47850;50.274;18.908;2023-01-15T04:31:41;97239.38;;;5.56;71.93
61898;BME280;47850;50.274;18.908;2023-01-15T04:34:06;97236.35;;;5.54;71.98
61898;BME280;47850;50.274;18.908;2023-01-15T04:36:32;97234.54;;;5.53;72.03
61898;BME280;47850;50.274;18.908;2023-01-15T04:39:03;97240.16;;;5.53;71.67
61898;BME280;47850;50.274;18.908;2023-01-15T04:41:29;97233.94;;;5.55;71.63
61898;BME280;47850;50.274;18.908;2023-01-15T04:44:13;97232.05;;;5.55;71.92
61898;BME280;47850;50.274;18.908;2023-01-15T04:46:44;97217.48;;;5.54;71.57
61898;BME280;47850;50.274;18.908;2023-01-15T04:49:13;97217.58;;;5.54;71.00
61898;BME280;47850;50.274;18.908;2023-01-15T04:51:40;97210.08;;;5.55;71.06
61898;BME280;47850;50.274;18.908;2023-01-15T04:54:07;97205.28;;;5.55;71.17
61898;BME280;47850;50.274;18.908;2023-01-15T04:56:37;97210.20;;;5.55;71.03
61898;BME280;47850;50.274;18.908;2023-01-15T04:59:03;97222.17;;;5.55;70.72
61898;BME280;47850;50.274;18.908;2023-01-15T05:01:29;97217.83;;;5.55;70.45
61898;BME280;47850;50.274;18.908;2023-01-15T05:03:54;97219.62;;;5.55;70.27
61898;BME280;47850;50.274;18.908;2023-01-15T05:06:21;97214.20;;;5.55;69.88
61898;BME280;47850;50.274;18.908;2023-01-15T05:08:47;97214.59;;;5.55;69.91
61898;BME280;47850;50.274;18.908;2023-01-15T05:11:12;97213.05;;;5.53;69.64
61898;BME280;47850;50.274;18.908;2023-01-15T05:13:38;97208.33;;;5.53;69.41
61898;BME280;47850;50.274;18.908;2023-01-15T05:16:18;97200.50;;;5.51;69.60
61898;BME280;47850;50.274;18.908;2023-01-15T05:18:44;97189.84;;;5.48;69.45
61898;BME280;47850;50.274;18.908;2023-01-15T05:21:19;97191.73;;;5.43;69.43
61898;BME280;47850;50.274;18.908;2023-01-15T05:23:46;97189.38;;;5.40;69.34
61898;BME280;47850;50.274;18.908;2023-01-15T05:26:11;97182.73;;;5.37;69.57
61898;BME280;47850;50.274;18.908;2023-01-15T05:28:37;97188.90;;;5.34;69.65
61898;BME280;47850;50.274;18.908;2023-01-15T05:31:17;97180.83;;;5.32;69.35
61898;BME280;47850;50.274;18.908;2023-01-15T05:33:45;97161.33;;;5.29;69.61
61898;BME280;47850;50.274;18.908;2023-01-15T05:36:13;97170.14;;;5.27;69.46
61898;BME280;47850;50.274;18.908;2023-01-15T05:38:39;97163.53;;;5.25;69.64
61898;BME280;47850;50.274;18.908;2023-01-15T05:41:07;97167.32;;;5.22;69.64
61898;BME280;47850;50.274;18.908;2023-01-15T05:43:52;97172.28;;;5.21;69.42
61898;BME280;47850;50.274;18.908;2023-01-15T05:46:18;97168.75;;;5.22;69.16
61898;BME280;47850;50.274;18.908;2023-01-15T05:48:43;97169.80;;;5.21;69.33
61898;BME280;47850;50.274;18.908;2023-01-15T05:51:09;97161.98;;;5.20;69.24
61898;BME280;47850;50.274;18.908;2023-01-15T05:53:35;97164.34;;;5.18;69.40
61898;BME280;47850;50.274;18.908;2023-01-15T05:56:01;97167.84;;;5.17;69.01
61898;BME280;47850;50.274;18.908;2023-01-15T05:58:26;97163.36;;;5.17;69.22
61898;BME280;47850;50.274;18.908;2023-01-15T06:00:52;97162.86;;;5.15;68.95
61898;BME280;47850;50.274;18.908;2023-01-15T06:03:20;97155.73;;;5.15;68.92
61898;BME280;47850;50.274;18.908;2023-01-15T06:05:52;97155.88;;;5.13;68.80
61898;BME280;47850;50.274;18.908;2023-01-15T06:08:19;97152.73;;;5.12;68.79
61898;BME280;47850;50.274;18.908;2023-01-15T06:10:45;97153.80;;;5.10;68.62
61898;BME280;47850;50.274;18.908;2023-01-15T06:13:12;97152.52;;;5.09;68.61
61898;BME280;47850;50.274;18.908;2023-01-15T06:15:38;97160.55;;;5.07;68.52
61898;BME280;47850;50.274;18.908;2023-01-15T06:18:03;97160.71;;;5.06;68.61
61898;BME280;47850;50.274;18.908;2023-01-15T06:20:28;97164.08;;;5.06;68.36
61898;BME280;47850;50.274;18.908;2023-01-15T06:22:54;97161.48;;;5.05;68.25
61898;BME280;47850;50.274;18.908;2023-01-15T06:25:19;97161.83;;;5.04;68.10
61898;BME280;47850;50.274;18.908;2023-01-15T06:27:45;97162.50;;;5.03;68.08
61898;BME280;47850;50.274;18.908;2023-01-15T06:30:13;97158.77;;;5.01;68.08
61898;BME280;47850;50.274;18.908;2023-01-15T06:32:39;97153.35;;;5.01;67.52
61898;BME280;47850;50.274;18.908;2023-01-15T06:35:05;97157.17;;;5.02;67.50
61898;BME280;47850;50.274;18.908;2023-01-15T06:37:30;97159.66;;;5.02;67.29
61898;BME280;47850;50.274;18.908;2023-01-15T06:39:56;97157.06;;;5.03;67.34
61898;BME280;47850;50.274;18.908;2023-01-15T06:42:21;97156.23;;;5.01;67.47
61898;BME280;47850;50.274;18.908;2023-01-15T06:45:08;97156.88;;;4.99;67.41
61898;BME280;47850;50.274;18.908;2023-01-15T06:47:53;97158.02;;;4.99;67.31
61898;BME280;47850;50.274;18.908;2023-01-15T06:50:18;97160.46;;;4.99;67.45
61898;BME280;47850;50.274;18.908;2023-01-15T06:52:44;97161.86;;;4.99;67.60
61898;BME280;47850;50.274;18.908;2023-01-15T06:55:09;97170.54;;;4.98;67.47
61898;BME280;47850;50.274;18.908;2023-01-15T06:57:39;97169.99;;;4.98;67.29
61898;BME280;47850;50.274;18.908;2023-01-15T07:00:07;97168.43;;;5.00;67.04
61898;BME280;47850;50.274;18.908;2023-01-15T07:02:32;97168.31;;;5.02;66.90
61898;BME280;47850;50.274;18.908;2023-01-15T07:04:58;97171.00;;;5.05;66.97
61898;BME280;47850;50.274;18.908;2023-01-15T07:07:26;97172.79;;;5.07;66.75
61898;BME280;47850;50.274;18.908;2023-01-15T07:09:52;97179.02;;;5.11;66.19
61898;BME280;47850;50.274;18.908;2023-01-15T07:12:18;97166.83;;;5.14;66.27
61898;BME280;47850;50.274;18.908;2023-01-15T07:14:44;97167.51;;;5.16;66.30
61898;BME280;47850;50.274;18.908;2023-01-15T07:17:10;97164.74;;;5.16;66.24
61898;BME280;47850;50.274;18.908;2023-01-15T07:19:36;97165.45;;;5.17;66.34
61898;BME280;47850;50.274;18.908;2023-01-15T07:22:02;97166.13;;;5.19;66.19
61898;BME280;47850;50.274;18.908;2023-01-15T07:24:27;97171.58;;;5.21;65.64
61898;BME280;47850;50.274;18.908;2023-01-15T07:26:53;97174.41;;;5.25;65.51
61898;BME280;47850;50.274;18.908;2023-01-15T07:29:18;97177.64;;;5.30;65.26
61898;BME280;47850;50.274;18.908;2023-01-15T07:31:44;97171.35;;;5.32;65.30
61898;BME280;47850;50.274;18.908;2023-01-15T07:34:09;97173.16;;;5.34;65.37
61898;BME280;47850;50.274;18.908;2023-01-15T07:36:36;97171.95;;;5.35;65.35
61898;BME280;47850;50.274;18.908;2023-01-15T07:39:03;97172.27;;;5.37;65.02
61898;BME280;47850;50.274;18.908;2023-01-15T07:41:29;97169.08;;;5.39;65.18
61898;BME280;47850;50.274;18.908;2023-01-15T07:44:14;97162.27;;;5.41;65.17
61898;BME280;47850;50.274;18.908;2023-01-15T07:46:58;97167.46;;;5.41;64.93
61898;BME280;47850;50.274;18.908;2023-01-15T07:49:43;97157.65;;;5.42;64.99
61898;BME280;47850;50.274;18.908;2023-01-15T07:52:17;97162.45;;;5.42;65.08
61898;BME280;47850;50.274;18.908;2023-01-15T07:54:44;97153.02;;;5.43;65.14
61898;BME280;47850;50.274;18.908;2023-01-15T07:57:11;97156.27;;;5.43;65.05
61898;BME280;47850;50.274;18.908;2023-01-15T07:59:38;97158.79;;;5.43;64.91
61898;BME280;47850;50.274;18.908;2023-01-15T08:02:04;97155.36;;;5.45;65.02
61898;BME280;47850;50.274;18.908;2023-01-15T08:04:29;97154.86;;;5.45;64.69
61898;BME280;47850;50.274;18.908;2023-01-15T08:06:55;97151.48;;;5.46;64.79
61898;BME280;47850;50.274;18.908;2023-01-15T08:09:22;97155.85;;;5.47;64.97
61898;BME280;47850;50.274;18.908;2023-01-15T08:11:50;97159.47;;;5.47;65.21
61898;BME280;47850;50.274;18.908;2023-01-15T08:14:34;97160.50;;;5.47;65.28
61898;BME280;47850;50.274;18.908;2023-01-15T08:17:19;97161.36;;;5.47;65.61
61898;BME280;47850;50.274;18.908;2023-01-15T08:19:44;97164.85;;;5.48;65.89
61898;BME280;47850;50.274;18.908;2023-01-15T08:22:09;97167.58;;;5.47;66.12
61898;BME280;47850;50.274;18.908;2023-01-15T08:24:36;97162.80;;;5.48;66.31
61898;BME280;47850;50.274;18.908;2023-01-15T08:27:01;97164.96;;;5.48;66.52
61898;BME280;47850;50.274;18.908;2023-01-15T08:29:27;97163.84;;;5.49;66.72
61898;BME280;47850;50.274;18.908;2023-01-15T08:31:52;97156.79;;;5.50;66.80
61898;BME280;47850;50.274;18.908;2023-01-15T08:34:18;97153.26;;;5.50;66.58
61898;BME280;47850;50.274;18.908;2023-01-15T08:36:44;97148.33;;;5.51;66.62
61898;BME280;47850;50.274;18.908;2023-01-15T08:39:09;97142.80;;;5.51;66.78
61898;BME280;47850;50.274;18.908;2023-01-15T08:41:35;97142.23;;;5.52;66.54
61898;BME280;47850;50.274;18.908;2023-01-15T08:44:01;97142.23;;;5.53;66.42
61898;BME280;47850;50.274;18.908;2023-01-15T08:46:27;97138.07;;;5.53;66.51
61898;BME280;47850;50.274;18.908;2023-01-15T08:48:52;97134.98;;;5.53;66.38
61898;BME280;47850;50.274;18.908;2023-01-15T08:51:18;97128.23;;;5.52;66.52
61898;BME280;47850;50.274;18.908;2023-01-15T08:53:44;97130.89;;;5.51;66.24
61898;BME280;47850;50.274;18.908;2023-01-15T08:56:17;97129.28;;;5.51;66.40
61898;BME280;47850;50.274;18.908;2023-01-15T08:58:44;97125.65;;;5.51;66.60
61898;BME280;47850;50.274;18.908;2023-01-15T09:01:11;97125.64;;;5.51;66.43
61898;BME280;47850;50.274;18.908;2023-01-15T09:03:40;97113.47;;;5.52;66.37
61898;BME280;47850;50.274;18.908;2023-01-15T09:06:07;97113.02;;;5.52;66.33
61898;BME280;47850;50.274;18.908;2023-01-15T09:08:33;97110.10;;;5.54;66.01
61898;BME280;47850;50.274;18.908;2023-01-15T09:11:03;97109.48;;;5.57;65.73
61898;BME280;47850;50.274;18.908;2023-01-15T09:13:30;97107.50;;;5.61;65.61
61898;BME280;47850;50.274;18.908;2023-01-15T09:15:59;97107.54;;;5.66;65.19
61898;BME280;47850;50.274;18.908;2023-01-15T09:18:25;97113.38;;;5.70;64.95
61898;BME280;47850;50.274;18.908;2023-01-15T09:20:51;97115.17;;;5.73;65.07
61898;BME280;47850;50.274;18.908;2023-01-15T09:23:17;97119.83;;;5.77;64.44
61898;BME280;47850;50.274;18.908;2023-01-15T09:26:04;97121.80;;;5.79;63.82
61898;BME280;47850;50.274;18.908;2023-01-15T09:28:32;97121.56;;;5.82;63.58
61898;BME280;47850;50.274;18.908;2023-01-15T09:30:58;97125.87;;;5.87;63.38
61898;BME280;47850;50.274;18.908;2023-01-15T09:33:24;97122.22;;;5.92;63.89
61898;BME280;47850;50.274;18.908;2023-01-15T09:35:50;97126.42;;;5.97;63.99
61898;BME280;47850;50.274;18.908;2023-01-15T09:38:18;97123.20;;;6.00;63.91
61898;BME280;47850;50.274;18.908;2023-01-15T09:40:52;97112.50;;;6.03;64.67
61898;BME280;47850;50.274;18.908;2023-01-15T09:45:57;97111.72;;;6.04;64.69
61898;BME280;47850;50.274;18.908;2023-01-15T09:56:31;97092.82;;;5.96;67.68
61898;BME280;47850;50.274;18.908;2023-01-15T09:58:58;97090.71;;;5.92;68.00
61898;BME280;47850;50.274;18.908;2023-01-15T10:01:28;97083.09;;;5.88;68.97
61898;BME280;47850;50.274;18.908;2023-01-15T10:03:59;97075.66;;;5.83;70.12
61898;BME280;47850;50.274;18.908;2023-01-15T10:06:43;97073.64;;;5.78;70.84
61898;BME280;47850;50.274;18.908;2023-01-15T10:09:21;97060.73;;;5.71;71.83
61898;BME280;47850;50.274;18.908;2023-01-15T10:12:29;97059.10;;;5.64;72.38
61898;BME280;47850;50.274;18.908;2023-01-15T10:20:01;97046.77;;;5.49;73.10
61898;BME280;47850;50.274;18.908;2023-01-15T10:28:30;97029.94;;;5.36;74.00
61898;BME280;47850;50.274;18.908;2023-01-15T10:31:03;97021.20;;;5.32;73.97
61898;BME280;47850;50.274;18.908;2023-01-15T10:36:22;97001.51;;;5.25;74.44
61898;BME280;47850;50.274;18.908;2023-01-15T10:42:29;97004.44;;;5.19;75.38
61898;BME280;47850;50.274;18.908;2023-01-15T10:45:23;97004.04;;;5.16;76.02
61898;BME280;47850;50.274;18.908;2023-01-15T10:47:59;97001.59;;;5.13;76.25
61898;BME280;47850;50.274;18.908;2023-01-15T10:50:28;97002.88;;;5.10;76.15
61898;BME280;47850;50.274;18.908;2023-01-15T10:55:49;96997.88;;;5.06;77.10
61898;BME280;47850;50.274;18.908;2023-01-15T11:00:55;96987.27;;;5.04;77.04
61898;BME280;47850;50.274;18.908;2023-01-15T11:03:21;96982.86;;;5.03;77.35
61898;BME280;47850;50.274;18.908;2023-01-15T11:05:48;96979.26;;;5.03;77.31
61898;BME280;47850;50.274;18.908;2023-01-15T11:08:25;96974.77;;;5.03;76.83
61898;BME280;47850;50.274;18.908;2023-01-15T11:11:04;96968.02;;;5.03;77.38
61898;BME280;47850;50.274;18.908;2023-01-15T11:13:34;96954.34;;;5.03;77.38
61898;BME280;47850;50.274;18.908;2023-01-15T11:16:24;96949.63;;;5.06;77.53
61898;BME280;47850;50.274;18.908;2023-01-15T11:19:24;96944.75;;;5.07;77.21
61898;BME280;47850;50.274;18.908;2023-01-15T11:24:55;96930.21;;;5.14;76.27
61898;BME280;47850;50.274;18.908;2023-01-15T11:27:32;96921.04;;;5.17;76.77
61898;BME280;47850;50.274;18.908;2023-01-15T11:30:00;96922.32;;;5.20;76.37
61898;BME280;47850;50.274;18.908;2023-01-15T11:35:00;96918.41;;;5.25;76.47
61898;BME280;47850;50.274;18.908;2023-01-15T11:37:27;96920.14;;;5.28;76.24
61898;BME280;47850;50.274;18.908;2023-01-15T11:39:58;96917.56;;;5.31;75.79
61898;BME280;47850;50.274;18.908;2023-01-15T11:42:30;96921.79;;;5.34;76.01
61898;BME280;47850;50.274;18.908;2023-01-15T11:45:18;96920.75;;;5.36;75.29
61898;BME280;47850;50.274;18.908;2023-01-15T11:48:15;96926.20;;;5.39;75.24
61898;BME280;47850;50.274;18.908;2023-01-15T11:51:19;96926.78;;;5.43;75.98
61898;BME280;47850;50.274;18.908;2023-01-15T11:53:48;96921.16;;;5.50;76.46
61898;BME280;47850;50.274;18.908;2023-01-15T11:56:26;96923.84;;;5.60;76.37
61898;BME280;47850;50.274;18.908;2023-01-15T11:58:55;96926.04;;;5.69;76.41
61898;BME280;47850;50.274;18.908;2023-01-15T12:01:30;96928.09;;;5.75;75.43
61898;BME280;47850;50.274;18.908;2023-01-15T12:04:02;96925.70;;;5.81;75.40
61898;BME280;47850;50.274;18.908;2023-01-15T12:06:29;96919.77;;;5.85;75.09
61898;BME280;47850;50.274;18.908;2023-01-15T12:24:57;96903.52;;;5.92;72.56
61898;BME280;47850;50.274;18.908;2023-01-15T12:30:18;96897.39;;;5.82;71.71
61898;BME280;47850;50.274;18.908;2023-01-15T12:33:35;96890.88;;;5.80;72.31
61898;BME280;47850;50.274;18.908;2023-01-15T12:35:40;96885.72;;;5.77;72.56
61898;BME280;47850;50.274;18.908;2023-01-15T12:38:17;96884.48;;;5.75;72.24
61898;BME280;47850;50.274;18.908;2023-01-15T12:41:16;96881.29;;;5.75;72.18
61898;BME280;47850;50.274;18.908;2023-01-15T12:43:48;96884.61;;;5.76;72.73
61898;BME280;47850;50.274;18.908;2023-01-15T12:46:37;96884.59;;;5.78;72.34
61898;BME280;47850;50.274;18.908;2023-01-15T12:49:30;96883.71;;;5.81;71.96
61898;BME280;47850;50.274;18.908;2023-01-15T12:52:04;96883.23;;;5.80;72.35
61898;BME280;47850;50.274;18.908;2023-01-15T12:54:47;96880.05;;;5.80;71.66
61898;BME280;47850;50.274;18.908;2023-01-15T12:57:29;96870.16;;;5.80;72.18
61898;BME280;47850;50.274;18.908;2023-01-15T13:00:10;96865.98;;;5.78;72.69
61898;BME280;47850;50.274;18.908;2023-01-15T13:08:06;96867.23;;;5.75;72.94
61898;BME280;47850;50.274;18.908;2023-01-15T13:10:37;96866.09;;;5.73;73.68
61898;BME280;47850;50.274;18.908;2023-01-15T13:13:19;96869.55;;;5.71;73.98
61898;BME280;47850;50.274;18.908;2023-01-15T13:18:58;96862.42;;;5.68;74.21
61898;BME280;47850;50.274;18.908;2023-01-15T13:21:24;96853.84;;;5.66;74.31
61898;BME280;47850;50.274;18.908;2023-01-15T13:32:11;96871.57;;;5.63;75.44
61898;BME280;47850;50.274;18.908;2023-01-15T13:34:43;96871.62;;;5.61;75.96
61898;BME280;47850;50.274;18.908;2023-01-15T13:39:52;96851.20;;;5.56;76.22
61898;BME280;47850;50.274;18.908;2023-01-15T13:42:22;96850.18;;;5.54;76.57
61898;BME280;47850;50.274;18.908;2023-01-15T13:47:46;96841.25;;;5.53;76.37
61898;BME280;47850;50.274;18.908;2023-01-15T13:50:18;96842.84;;;5.52;76.69
61898;BME280;47850;50.274;18.908;2023-01-15T13:52:47;96852.16;;;5.52;76.60
61898;BME280;47850;50.274;18.908;2023-01-15T13:55:28;96853.36;;;5.51;76.43
61898;BME280;47850;50.274;18.908;2023-01-15T13:57:55;96856.64;;;5.52;76.45
61898;BME280;47850;50.274;18.908;2023-01-15T14:00:33;96862.13;;;5.52;76.16
61898;BME280;47850;50.274;18.908;2023-01-15T14:03:27;96870.27;;;5.52;76.11
61898;BME280;47850;50.274;18.908;2023-01-15T14:06:05;96864.42;;;5.53;75.72
61898;BME280;47850;50.274;18.908;2023-01-15T14:08:44;96860.82;;;5.53;75.58
61898;BME280;47850;50.274;18.908;2023-01-15T14:19:57;96849.93;;;5.55;75.47
61898;BME280;47850;50.274;18.908;2023-01-15T14:25:43;96836.19;;;5.55;74.88
61898;BME280;47850;50.274;18.908;2023-01-15T14:34:15;96838.73;;;5.57;74.99
61898;BME280;47850;50.274;18.908;2023-01-15T14:42:35;96846.17;;;5.54;75.38
61898;BME280;47850;50.274;18.908;2023-01-15T14:47:58;96853.23;;;5.52;75.78
61898;BME280;47850;50.274;18.908;2023-01-15T14:50:41;96853.27;;;5.51;75.99
61898;BME280;47850;50.274;18.908;2023-01-15T14:55:52;96862.88;;;5.44;77.15
61898;BME280;47850;50.274;18.908;2023-01-15T15:00:59;96872.38;;;5.37;77.74
61898;BME280;47850;50.274;18.908;2023-01-15T15:03:45;96873.64;;;5.35;78.21
61898;BME280;47850;50.274;18.908;2023-01-15T15:06:13;96873.20;;;5.30;78.69
61898;BME280;47850;50.274;18.908;2023-01-15T15:08:40;96868.05;;;5.25;78.93
61898;BME280;47850;50.274;18.908;2023-01-15T15:11:14;96870.88;;;5.21;79.43
61898;BME280;47850;50.274;18.908;2023-01-15T15:14:03;96874.99;;;5.17;80.09
61898;BME280;47850;50.274;18.908;2023-01-15T15:16:33;96873.69;;;5.14;80.53
61898;BME280;47850;50.274;18.908;2023-01-15T15:19:10;96873.73;;;5.10;81.17
61898;BME280;47850;50.274;18.908;2023-01-15T15:21:41;96877.23;;;5.07;81.20
61898;BME280;47850;50.274;18.908;2023-01-15T15:24:22;96877.39;;;5.03;81.67
61898;BME280;47850;50.274;18.908;2023-01-15T15:26:50;96872.46;;;4.98;82.31
61898;BME280;47850;50.274;18.908;2023-01-15T15:29:17;96867.88;;;4.96;82.54
61898;BME280;47850;50.274;18.908;2023-01-15T15:31:48;96864.97;;;4.93;82.88
61898;BME280;47850;50.274;18.908;2023-01-15T15:34:32;96863.19;;;4.91;83.09
61898;BME280;47850;50.274;18.908;2023-01-15T15:37:01;96873.04;;;4.89;83.34
61898;BME280;47850;50.274;18.908;2023-01-15T15:42:00;96884.24;;;4.86;83.74